Flight Track Log - Related Links

Times and Time Zones

All times are in EDT time to prevent confusion due to time zone crossing. See the N79470 flight status page for this flight to view local times or setup timezone preferences in your user account.

Time Position Orientation Groundspeed Altitude Reporting Facility
EDT Latitude Longitude Course Direction KTS MPH feet Rate Location/Type
Fri 04:12:52 PM 43.2964 -73.1475 14° North 104 120 11,800  Level Boston Center
Fri 04:13:51 PM 43.3297 -73.1364 14° North 111 128 11,400 -403 Descending Boston Center
Fri 04:14:51 PM 43.3592 -73.1197 22° Northeast 111 128 11,000 -198 Descending Boston Center
Fri 04:15:52 PM 43.3906 -73.1058 18° North 111 128 11,000  Level Boston Center
Fri 04:16:50 PM 43.4156 -73.0947 18° North 106 122 11,000  Level Boston Center
Fri 04:17:50 PM 43.4447 -73.0836 15° North 106 122 11,000 49 Level Boston Center
Fri 04:18:52 PM 43.4719 -73.0722 17° North 106 122 11,100 50 Climbing Boston Center
Fri 04:19:50 PM 43.4992 -73.0639 13° North 106 122 11,100 50 Level Boston Center
Fri 04:20:51 PM 43.5283 -73.0528 15° North 106 122 11,200  Climbing Boston Center
Fri 04:21:51 PM 43.5575 -73.0417 15° North 106 122 11,100 -99 Descending Boston Center
Fri 04:22:52 PM 43.5867 -73.0306 15° North 106 122 11,000 -50 Descending Boston Center
Fri 04:23:50 PM 43.6119 -73.0194 18° North 106 122 11,000 -101 Level Boston Center
Fri 04:24:51 PM 43.6389 -73.0167 North 101 116 10,800 -344 Descending Boston Center
Fri 04:25:52 PM 43.6703 -72.9997 21° North 101 116 10,300 -555 Descending Boston Center
Fri 04:26:50 PM 43.6994 -72.9828 23° Northeast 111 128 9,700 -555 Descending Boston Center
Fri 04:27:51 PM 43.7308 -72.9717 14° North 111 128 9,200 -393 Descending Boston Center
Fri 04:28:52 PM 43.7622 -72.9633 11° North 111 128 8,900 -446 Descending Boston Center
Fri 04:29:52 PM 43.7933 -72.9550 11° North 111 128 8,300 -500 Descending Boston Center
Fri 04:30:52 PM 43.8186 -72.9378 26° Northeast 100 115 7,900 -203 Descending Boston Center
Fri 04:31:50 PM 43.8478 -72.9236 19° North 106 122 7,900  Level Boston Center
Fri 04:32:51 PM 43.8792 -72.9094 18° North 112 129 7,900  Level Boston Center
Fri 04:33:51 PM 43.9083 -72.8983 15° North 107 123 7,900 -99 Level Boston Center
Fri 04:34:52 PM 43.9394 -72.8869 15° North 107 123 7,700  Descending Boston Center
Fri 04:35:50 PM 43.9708 -72.8728 18° North 107 123 7,900 50 Climbing Boston Center
Fri 04:36:51 PM 44.0022 -72.8644 11° North 107 123 7,800  Descending Boston Center
Fri 04:37:51 PM 44.0272 -72.8500 23° Northeast 107 123 7,900 50 Climbing Boston Center
Fri 04:38:52 PM 44.0544 -72.8417 12° North 101 116 7,900 -50 Level Boston Center
Fri 04:39:52 PM 44.0836 -72.8272 20° North 106 122 7,800 -198 Descending Boston Center
Fri 04:40:53 PM 44.1150 -72.8131 18° North 106 122 7,500 -454 Descending Boston Center
Fri 04:41:51 PM 44.1483 -72.7989 17° North 112 129 6,900 -555 Descending Boston Center
Fri 04:42:52 PM 44.1817 -72.7817 20° North 117 135 6,400 -541 Descending Boston Center
Fri 04:43:53 PM 44.2150 -72.7675 17° North 124 143 5,800 -763 Descending Boston Center
Fri 04:44:50 PM 44.2483 -72.7589 10° North 124 143 4,900 -864 Descending Boston Center
Fri 04:45:51 PM 44.2817 -72.7475 14° North 124 143 4,100 -639 Descending Boston Center
Fri 04:46:52 PM 44.3131 -72.7417 North 124 143 3,600 -492 Descending Boston Center

Login

Don't have an account? Register now (free) for customized features, flight alerts, and more!